KEGE/EGE METAR and TAF weather

Enter ICAO airport designator
Station Type Date Time Source
KEGE METAR 2018/09/21 23:56 UTC NOAA

KEGE 212356Z 24011KT 10SM CLR 26/M08 A3023 RMK AO2 SLP199 6//// T02611083 10272 20161 55004 PNO $


Station Type Date Time Source
KEGE Decoded METAR 2018/09/21 23:56 UTC NOAA

Eagle County Regional, CO, United States (KEGE) 39-39N 106-55W
Sep 21, 2018 - 07:56 PM EDT / 2018.09.21 2356 UTC
Wind: from the WSW (240 degrees) at 13 MPH (11 KT):0
Visibility: 10 mile(s):0
Sky conditions: clear
Temperature: 79.0 F (26.1 C)
Dew Point: 17.1 F (-8.3 C)
Relative Humidity: 9%
Pressure (altimeter): 30.23 in. Hg (1023 hPa)
Pressure tendency: 0.01 inches (0.4 hPa) lower than three hours ago
ob: KEGE 212356Z 24011KT 10SM CLR 26/M08 A3023 RMK AO2 SLP199 6//// T02611083 10272 20161 55004 PNO
cycle: 0

Station Type Date Time Source
KEGE TAF 2018/09/21 18:30 UTC NOAA

TAF KEGE 211726Z 2118/2218 VRB03KT P6SM SKC
FM212000 25010G20KT P6SM SKC
FM220100 23005KT P6SM SKC
FM220300 VRB03KT P6SM SKC


Example: see airport list